sensor_id;sensor_type;location;lat;lon;timestamp;pressure;altitude;pressure_sealevel;temperature;humidity
25084;BME280;13075;55.682;37.564;2022-11-15T00:00:30;100183.94;;;1.97;100.00
25084;BME280;13075;55.682;37.564;2022-11-15T00:03:16;100170.72;;;1.87;100.00
25084;BME280;13075;55.682;37.564;2022-11-15T00:06:04;100189.03;;;1.89;100.00
25084;BME280;13075;55.682;37.564;2022-11-15T00:08:48;100182.34;;;1.85;100.00
25084;BME280;13075;55.682;37.564;2022-11-15T00:11:32;100176.22;;;1.84;100.00
25084;BME280;13075;55.682;37.564;2022-11-15T00:14:16;100172.75;;;1.84;100.00
25084;BME280;13075;55.682;37.564;2022-11-15T00:17:00;100171.53;;;1.88;100.00
25084;BME280;13075;55.682;37.564;2022-11-15T00:19:44;100172.56;;;1.76;100.00
25084;BME280;13075;55.682;37.564;2022-11-15T00:22:32;100171.91;;;1.83;100.00
25084;BME280;13075;55.682;37.564;2022-11-15T00:25:17;100165.69;;;1.84;100.00
25084;BME280;13075;55.682;37.564;2022-11-15T00:28:01;100162.09;;;1.85;100.00
25084;BME280;13075;55.682;37.564;2022-11-15T00:30:45;100159.31;;;1.87;100.00
25084;BME280;13075;55.682;37.564;2022-11-15T00:33:29;100162.09;;;1.85;100.00
25084;BME280;13075;55.682;37.564;2022-11-15T00:36:13;100165.38;;;1.78;100.00
25084;BME280;13075;55.682;37.564;2022-11-15T00:38:58;100154.63;;;1.70;100.00
25084;BME280;13075;55.682;37.564;2022-11-15T00:41:41;100149.81;;;1.75;100.00
25084;BME280;13075;55.682;37.564;2022-11-15T00:44:25;100146.56;;;1.71;100.00
25084;BME280;13075;55.682;37.564;2022-11-15T00:47:09;100147.63;;;1.80;100.00
25084;BME280;13075;55.682;37.564;2022-11-15T00:49:53;100145.03;;;1.89;100.00
25084;BME280;13075;55.682;37.564;2022-11-15T00:52:37;100134.72;;;1.86;100.00
25084;BME280;13075;55.682;37.564;2022-11-15T00:55:21;100140.59;;;1.90;100.00
25084;BME280;13075;55.682;37.564;2022-11-15T00:58:05;100143.94;;;1.92;100.00
25084;BME280;13075;55.682;37.564;2022-11-15T01:03:40;100129.53;;;1.75;100.00
25084;BME280;13075;55.682;37.564;2022-11-15T01:06:25;100124.28;;;1.75;100.00
25084;BME280;13075;55.682;37.564;2022-11-15T01:09:09;100129.84;;;1.82;100.00
25084;BME280;13075;55.682;37.564;2022-11-15T01:11:53;100127.72;;;1.76;100.00
25084;BME280;13075;55.682;37.564;2022-11-15T01:14:37;100131.84;;;1.69;100.00
25084;BME280;13075;55.682;37.564;2022-11-15T01:17:21;100132.34;;;1.83;100.00
25084;BME280;13075;55.682;37.564;2022-11-15T01:20:05;100130.16;;;1.88;100.00
25084;BME280;13075;55.682;37.564;2022-11-15T01:22:50;100115.56;;;1.84;100.00
25084;BME280;13075;55.682;37.564;2022-11-15T01:25:34;100111.38;;;1.82;100.00
25084;BME280;13075;55.682;37.564;2022-11-15T01:28:18;100119.69;;;1.77;100.00
25084;BME280;13075;55.682;37.564;2022-11-15T01:31:04;100105.81;;;1.75;100.00
25084;BME280;13075;55.682;37.564;2022-11-15T01:33:49;100103.72;;;1.79;100.00
25084;BME280;13075;55.682;37.564;2022-11-15T01:36:33;100096.41;;;1.82;100.00
25084;BME280;13075;55.682;37.564;2022-11-15T01:39:17;100095.03;;;1.88;100.00
25084;BME280;13075;55.682;37.564;2022-11-15T01:42:00;100100.84;;;1.82;100.00
25084;BME280;13075;55.682;37.564;2022-11-15T01:44:50;100104.06;;;1.85;100.00
25084;BME280;13075;55.682;37.564;2022-11-15T01:47:40;100107.00;;;1.71;100.00
25084;BME280;13075;55.682;37.564;2022-11-15T01:50:29;100111.25;;;1.63;100.00
25084;BME280;13075;55.682;37.564;2022-11-15T01:53:15;100107.00;;;1.71;100.00
25084;BME280;13075;55.682;37.564;2022-11-15T01:56:02;100108.47;;;1.55;100.00
25084;BME280;13075;55.682;37.564;2022-11-15T01:58:48;100099.25;;;1.49;100.00
25084;BME280;13075;55.682;37.564;2022-11-15T02:01:35;100108.63;;;1.42;100.00
25084;BME280;13075;55.682;37.564;2022-11-15T02:04:25;100108.81;;;1.30;100.00
25084;BME280;13075;55.682;37.564;2022-11-15T02:07:14;100106.81;;;1.43;100.00
25084;BME280;13075;55.682;37.564;2022-11-15T02:10:04;100102.25;;;1.45;100.00
25084;BME280;13075;55.682;37.564;2022-11-15T02:12:50;100101.00;;;1.39;100.00
25084;BME280;13075;55.682;37.564;2022-11-15T02:16:02;100101.69;;;1.41;100.00
25084;BME280;13075;55.682;37.564;2022-11-15T02:18:59;100106.13;;;1.41;100.00
25084;BME280;13075;55.682;37.564;2022-11-15T02:31:31;100082.47;;;1.50;100.00
25084;BME280;13075;55.682;37.564;2022-11-15T02:34:26;100096.88;;;1.46;100.00
25084;BME280;13075;55.682;37.564;2022-11-15T02:37:16;100098.81;;;1.44;100.00
25084;BME280;13075;55.682;37.564;2022-11-15T02:42:55;100082.66;;;1.38;100.00
25084;BME280;13075;55.682;37.564;2022-11-15T02:46:17;100094.75;;;1.40;100.00
25084;BME280;13075;55.682;37.564;2022-11-15T02:49:02;100090.75;;;1.25;100.00
25084;BME280;13075;55.682;37.564;2022-11-15T02:51:47;100092.34;;;1.37;100.00
25084;BME280;13075;55.682;37.564;2022-11-15T02:54:33;100081.00;;;1.37;100.00
25084;BME280;13075;55.682;37.564;2022-11-15T02:57:25;100081.94;;;1.36;100.00
25084;BME280;13075;55.682;37.564;2022-11-15T03:00:15;100073.75;;;1.29;100.00
25084;BME280;13075;55.682;37.564;2022-11-15T03:06:14;100072.06;;;1.28;100.00
25084;BME280;13075;55.682;37.564;2022-11-15T03:09:09;100078.53;;;1.24;100.00
25084;BME280;13075;55.682;37.564;2022-11-15T03:12:11;100072.66;;;1.32;100.00
25084;BME280;13075;55.682;37.564;2022-11-15T03:17:58;100074.88;;;1.36;100.00
25084;BME280;13075;55.682;37.564;2022-11-15T03:20:44;100058.19;;;1.26;100.00
25084;BME280;13075;55.682;37.564;2022-11-15T03:23:30;100051.81;;;1.29;100.00
25084;BME280;13075;55.682;37.564;2022-11-15T03:26:16;100047.94;;;1.33;100.00
25084;BME280;13075;55.682;37.564;2022-11-15T03:29:10;100050.47;;;1.13;100.00
25084;BME280;13075;55.682;37.564;2022-11-15T03:32:00;100047.75;;;1.24;100.00
25084;BME280;13075;55.682;37.564;2022-11-15T03:40:46;100053.34;;;1.10;100.00
25084;BME280;13075;55.682;37.564;2022-11-15T03:43:55;100057.34;;;1.25;100.00
25084;BME280;13075;55.682;37.564;2022-11-15T03:46:54;100051.91;;;1.27;100.00
25084;BME280;13075;55.682;37.564;2022-11-15T03:49:49;100060.22;;;1.22;100.00
25084;BME280;13075;55.682;37.564;2022-11-15T03:52:35;100055.75;;;1.13;100.00
25084;BME280;13075;55.682;37.564;2022-11-15T03:55:20;100051.22;;;1.25;100.00
25084;BME280;13075;55.682;37.564;2022-11-15T03:58:05;100041.56;;;1.35;100.00
25084;BME280;13075;55.682;37.564;2022-11-15T04:00:49;100044.81;;;1.39;100.00
25084;BME280;13075;55.682;37.564;2022-11-15T04:03:33;100050.59;;;1.33;100.00
25084;BME280;13075;55.682;37.564;2022-11-15T04:06:17;100041.72;;;1.34;100.00
25084;BME280;13075;55.682;37.564;2022-11-15T04:09:01;100038.56;;;1.19;100.00
25084;BME280;13075;55.682;37.564;2022-11-15T04:11:45;100041.28;;;1.29;100.00
25084;BME280;13075;55.682;37.564;2022-11-15T04:14:29;100040.53;;;1.26;100.00
25084;BME280;13075;55.682;37.564;2022-11-15T04:17:12;100027.44;;;1.15;100.00
25084;BME280;13075;55.682;37.564;2022-11-15T04:19:56;100038.09;;;1.35;100.00
25084;BME280;13075;55.682;37.564;2022-11-15T04:23:00;100042.56;;;1.34;100.00
25084;BME280;13075;55.682;37.564;2022-11-15T04:26:05;100042.41;;;1.36;100.00
25084;BME280;13075;55.682;37.564;2022-11-15T04:28:49;100032.38;;;1.30;100.00
25084;BME280;13075;55.682;37.564;2022-11-15T04:31:52;100030.09;;;1.15;100.00
25084;BME280;13075;55.682;37.564;2022-11-15T04:34:36;100035.03;;;1.30;100.00
25084;BME280;13075;55.682;37.564;2022-11-15T04:37:22;100035.09;;;1.18;100.00
25084;BME280;13075;55.682;37.564;2022-11-15T04:40:06;100031.09;;;1.24;100.00
25084;BME280;13075;55.682;37.564;2022-11-15T04:42:50;100024.38;;;1.31;100.00
25084;BME280;13075;55.682;37.564;2022-11-15T04:45:35;100022.69;;;1.30;100.00
25084;BME280;13075;55.682;37.564;2022-11-15T04:48:19;100023.97;;;1.36;100.00
25084;BME280;13075;55.682;37.564;2022-11-15T04:51:03;100019.72;;;1.44;100.00
25084;BME280;13075;55.682;37.564;2022-11-15T04:53:46;100014.91;;;1.49;100.00
25084;BME280;13075;55.682;37.564;2022-11-15T04:56:30;100013.72;;;1.42;100.00
25084;BME280;13075;55.682;37.564;2022-11-15T04:59:14;100020.28;;;1.48;100.00
25084;BME280;13075;55.682;37.564;2022-11-15T05:01:58;100008.38;;;1.23;100.00
25084;BME280;13075;55.682;37.564;2022-11-15T05:04:42;100002.75;;;1.16;100.00
25084;BME280;13075;55.682;37.564;2022-11-15T05:07:27;100011.50;;;1.17;100.00
25084;BME280;13075;55.682;37.564;2022-11-15T05:10:10;100013.13;;;1.08;100.00
25084;BME280;13075;55.682;37.564;2022-11-15T05:12:55;100009.00;;;1.15;100.00
25084;BME280;13075;55.682;37.564;2022-11-15T05:15:38;100007.22;;;0.95;100.00
25084;BME280;13075;55.682;37.564;2022-11-15T05:18:22;100009.31;;;1.01;100.00
25084;BME280;13075;55.682;37.564;2022-11-15T05:21:08;100008.13;;;1.05;100.00
25084;BME280;13075;55.682;37.564;2022-11-15T05:23:53;100009.97;;;1.14;100.00
25084;BME280;13075;55.682;37.564;2022-11-15T05:26:37;100022.94;;;1.06;100.00
25084;BME280;13075;55.682;37.564;2022-11-15T05:29:21;100015.69;;;1.19;100.00
25084;BME280;13075;55.682;37.564;2022-11-15T05:32:05;100008.63;;;1.20;100.00
25084;BME280;13075;55.682;37.564;2022-11-15T05:34:49;100004.19;;;1.20;100.00
25084;BME280;13075;55.682;37.564;2022-11-15T05:37:34;99999.97;;;1.08;100.00
25084;BME280;13075;55.682;37.564;2022-11-15T05:40:18;99994.75;;;1.18;100.00
25084;BME280;13075;55.682;37.564;2022-11-15T05:43:02;99995.75;;;1.26;100.00
25084;BME280;13075;55.682;37.564;2022-11-15T05:45:47;99989.72;;;1.36;100.00
25084;BME280;13075;55.682;37.564;2022-11-15T05:48:34;99997.41;;;1.48;100.00
25084;BME280;13075;55.682;37.564;2022-11-15T05:51:20;99992.72;;;1.52;100.00
25084;BME280;13075;55.682;37.564;2022-11-15T05:54:05;99983.28;;;1.59;100.00
25084;BME280;13075;55.682;37.564;2022-11-15T05:56:49;99986.41;;;1.43;100.00
25084;BME280;13075;55.682;37.564;2022-11-15T05:59:34;99985.91;;;1.49;100.00
25084;BME280;13075;55.682;37.564;2022-11-15T06:02:19;99983.13;;;1.51;100.00
25084;BME280;13075;55.682;37.564;2022-11-15T06:05:03;99976.91;;;1.61;100.00
25084;BME280;13075;55.682;37.564;2022-11-15T06:07:48;99971.25;;;1.66;100.00
25084;BME280;13075;55.682;37.564;2022-11-15T06:10:32;99965.78;;;1.58;100.00
25084;BME280;13075;55.682;37.564;2022-11-15T06:13:16;99981.28;;;1.81;100.00
25084;BME280;13075;55.682;37.564;2022-11-15T06:16:00;99983.53;;;1.46;100.00
25084;BME280;13075;55.682;37.564;2022-11-15T06:18:44;99974.47;;;1.69;100.00
25084;BME280;13075;55.682;37.564;2022-11-15T06:21:28;99971.00;;;1.78;100.00
25084;BME280;13075;55.682;37.564;2022-11-15T06:24:12;99964.41;;;1.94;100.00
25084;BME280;13075;55.682;37.564;2022-11-15T06:26:56;99963.81;;;1.80;100.00
25084;BME280;13075;55.682;37.564;2022-11-15T06:29:41;99959.78;;;1.86;100.00
25084;BME280;13075;55.682;37.564;2022-11-15T06:32:25;99957.97;;;1.86;100.00
25084;BME280;13075;55.682;37.564;2022-11-15T06:35:09;99953.13;;;1.82;100.00
25084;BME280;13075;55.682;37.564;2022-11-15T06:37:53;99962.31;;;1.97;100.00
25084;BME280;13075;55.682;37.564;2022-11-15T06:40:37;99945.72;;;1.66;100.00
25084;BME280;13075;55.682;37.564;2022-11-15T06:43:21;99929.66;;;1.79;100.00
25084;BME280;13075;55.682;37.564;2022-11-15T06:46:05;99942.56;;;1.82;100.00
25084;BME280;13075;55.682;37.564;2022-11-15T06:48:53;99948.53;;;1.84;100.00
25084;BME280;13075;55.682;37.564;2022-11-15T06:51:37;99936.63;;;1.89;100.00
25084;BME280;13075;55.682;37.564;2022-11-15T06:54:21;99938.41;;;1.89;100.00
25084;BME280;13075;55.682;37.564;2022-11-15T06:57:05;99934.66;;;1.82;100.00
25084;BME280;13075;55.682;37.564;2022-11-15T06:59:49;99925.53;;;1.96;100.00
25084;BME280;13075;55.682;37.564;2022-11-15T07:02:33;99930.00;;;2.14;100.00
25084;BME280;13075;55.682;37.564;2022-11-15T07:05:18;99932.34;;;2.17;100.00
25084;BME280;13075;55.682;37.564;2022-11-15T07:08:03;99931.81;;;2.23;100.00
25084;BME280;13075;55.682;37.564;2022-11-15T07:10:48;99915.28;;;2.31;100.00
25084;BME280;13075;55.682;37.564;2022-11-15T07:13:33;99917.09;;;2.21;100.00
25084;BME280;13075;55.682;37.564;2022-11-15T07:16:18;99911.53;;;2.33;100.00
25084;BME280;13075;55.682;37.564;2022-11-15T07:19:01;99917.66;;;2.43;100.00
25084;BME280;13075;55.682;37.564;2022-11-15T07:21:45;99921.13;;;2.44;100.00
25084;BME280;13075;55.682;37.564;2022-11-15T07:24:30;99916.69;;;2.44;100.00
25084;BME280;13075;55.682;37.564;2022-11-15T07:27:14;99926.41;;;2.34;100.00
25084;BME280;13075;55.682;37.564;2022-11-15T07:29:58;99914.19;;;2.24;100.00
25084;BME280;13075;55.682;37.564;2022-11-15T07:32:42;99902.38;;;2.28;100.00
25084;BME280;13075;55.682;37.564;2022-11-15T07:35:28;99909.88;;;2.23;100.00
25084;BME280;13075;55.682;37.564;2022-11-15T07:38:12;99901.25;;;2.11;100.00
25084;BME280;13075;55.682;37.564;2022-11-15T07:41:00;99896.13;;;2.38;100.00
25084;BME280;13075;55.682;37.564;2022-11-15T07:43:44;99886.94;;;2.52;100.00
25084;BME280;13075;55.682;37.564;2022-11-15T07:46:28;99890.25;;;2.64;100.00
25084;BME280;13075;55.682;37.564;2022-11-15T07:49:12;99872.47;;;2.66;100.00
25084;BME280;13075;55.682;37.564;2022-11-15T07:51:56;99885.38;;;2.69;100.00
25084;BME280;13075;55.682;37.564;2022-11-15T07:54:39;99879.59;;;2.27;100.00
25084;BME280;13075;55.682;37.564;2022-11-15T07:57:24;99880.00;;;2.41;100.00
25084;BME280;13075;55.682;37.564;2022-11-15T08:00:08;99864.97;;;2.61;100.00
25084;BME280;13075;55.682;37.564;2022-11-15T08:02:52;99871.38;;;2.68;100.00
25084;BME280;13075;55.682;37.564;2022-11-15T08:05:37;99869.47;;;2.32;100.00
25084;BME280;13075;55.682;37.564;2022-11-15T08:08:21;99871.25;;;2.31;100.00
25084;BME280;13075;55.682;37.564;2022-11-15T08:11:05;99873.88;;;2.60;100.00
25084;BME280;13075;55.682;37.564;2022-11-15T08:13:49;99871.13;;;2.42;100.00
25084;BME280;13075;55.682;37.564;2022-11-15T08:16:33;99869.72;;;2.29;100.00
25084;BME280;13075;55.682;37.564;2022-11-15T08:19:17;99875.13;;;2.46;100.00
25084;BME280;13075;55.682;37.564;2022-11-15T08:22:02;99869.00;;;2.56;100.00
25084;BME280;13075;55.682;37.564;2022-11-15T08:24:45;99870.25;;;2.51;100.00
25084;BME280;13075;55.682;37.564;2022-11-15T08:27:29;99863.19;;;2.52;100.00
25084;BME280;13075;55.682;37.564;2022-11-15T08:30:13;99853.03;;;2.57;100.00
25084;BME280;13075;55.682;37.564;2022-11-15T08:32:59;99844.13;;;2.58;100.00
25084;BME280;13075;55.682;37.564;2022-11-15T08:35:44;99849.91;;;2.81;100.00
25084;BME280;13075;55.682;37.564;2022-11-15T08:38:29;99845.47;;;2.81;100.00
25084;BME280;13075;55.682;37.564;2022-11-15T08:41:28;99846.13;;;2.93;100.00
25084;BME280;13075;55.682;37.564;2022-11-15T08:44:13;99849.22;;;2.79;100.00
25084;BME280;13075;55.682;37.564;2022-11-15T08:46:57;99841.28;;;2.88;100.00
25084;BME280;13075;55.682;37.564;2022-11-15T08:49:41;99834.91;;;2.81;100.00
25084;BME280;13075;55.682;37.564;2022-11-15T08:52:25;99835.63;;;2.64;100.00
25084;BME280;13075;55.682;37.564;2022-11-15T08:55:09;99835.34;;;2.67;100.00
25084;BME280;13075;55.682;37.564;2022-11-15T08:57:53;99836.66;;;2.34;100.00
25084;BME280;13075;55.682;37.564;2022-11-15T09:00:37;99836.94;;;2.31;100.00
25084;BME280;13075;55.682;37.564;2022-11-15T09:03:21;99838.84;;;2.58;100.00
25084;BME280;13075;55.682;37.564;2022-11-15T09:06:05;99832.31;;;2.53;100.00
25084;BME280;13075;55.682;37.564;2022-11-15T09:08:49;99829.34;;;2.75;100.00
25084;BME280;13075;55.682;37.564;2022-11-15T09:11:33;99829.66;;;2.62;100.00
25084;BME280;13075;55.682;37.564;2022-11-15T09:14:18;99825.06;;;2.64;100.00
25084;BME280;13075;55.682;37.564;2022-11-15T09:17:02;99818.63;;;2.76;100.00
25084;BME280;13075;55.682;37.564;2022-11-15T09:19:46;99805.75;;;3.00;100.00
25084;BME280;13075;55.682;37.564;2022-11-15T09:22:30;99803.16;;;2.91;100.00
25084;BME280;13075;55.682;37.564;2022-11-15T09:25:14;99803.59;;;2.86;100.00
25084;BME280;13075;55.682;37.564;2022-11-15T09:27:58;99797.47;;;2.86;100.00
25084;BME280;13075;55.682;37.564;2022-11-15T09:30:43;99800.41;;;2.83;100.00
25084;BME280;13075;55.682;37.564;2022-11-15T09:33:28;99786.41;;;2.73;100.00
25084;BME280;13075;55.682;37.564;2022-11-15T09:36:12;99795.59;;;2.59;100.00
25084;BME280;13075;55.682;37.564;2022-11-15T09:38:58;99794.38;;;2.53;100.00
25084;BME280;13075;55.682;37.564;2022-11-15T09:44:44;99787.47;;;2.80;100.00
25084;BME280;13075;55.682;37.564;2022-11-15T09:50:54;99783.03;;;2.80;100.00
25084;BME280;13075;55.682;37.564;2022-11-15T09:53:42;99775.66;;;2.84;100.00
25084;BME280;13075;55.682;37.564;2022-11-15T09:56:45;99788.44;;;2.88;100.00
25084;BME280;13075;55.682;37.564;2022-11-15T10:02:41;99772.31;;;2.82;100.00
25084;BME280;13075;55.682;37.564;2022-11-15T10:05:12;99775.75;;;2.55;100.00
25084;BME280;13075;55.682;37.564;2022-11-15T10:10:42;99768.44;;;2.76;100.00
25084;BME280;13075;55.682;37.564;2022-11-15T10:13:16;99776.03;;;2.52;100.00
25084;BME280;13075;55.682;37.564;2022-11-15T10:15:45;99773.59;;;2.78;100.00
25084;BME280;13075;55.682;37.564;2022-11-15T10:23:16;99744.25;;;2.71;100.00
25084;BME280;13075;55.682;37.564;2022-11-15T10:25:43;99743.13;;;2.83;100.00
25084;BME280;13075;55.682;37.564;2022-11-15T10:28:18;99734.25;;;2.75;100.00
25084;BME280;13075;55.682;37.564;2022-11-15T10:30:51;99735.44;;;2.63;100.00
25084;BME280;13075;55.682;37.564;2022-11-15T10:33:31;99741.75;;;2.42;100.00
25084;BME280;13075;55.682;37.564;2022-11-15T10:38:53;99735.69;;;2.13;100.00
25084;BME280;13075;55.682;37.564;2022-11-15T10:49:28;99698.44;;;2.26;100.00
25084;BME280;13075;55.682;37.564;2022-11-15T10:54:24;99711.25;;;2.21;100.00
25084;BME280;13075;55.682;37.564;2022-11-15T10:56:55;99706.69;;;2.04;100.00
25084;BME280;13075;55.682;37.564;2022-11-15T10:59:28;99710.03;;;1.86;100.00
25084;BME280;13075;55.682;37.564;2022-11-15T11:01:55;99700.75;;;1.92;100.00
25084;BME280;13075;55.682;37.564;2022-11-15T11:04:21;99689.34;;;2.01;100.00
25084;BME280;13075;55.682;37.564;2022-11-15T11:06:48;99697.34;;;2.09;100.00
25084;BME280;13075;55.682;37.564;2022-11-15T11:09:35;99688.59;;;2.18;100.00
25084;BME280;13075;55.682;37.564;2022-11-15T11:12:09;99687.72;;;2.27;100.00
25084;BME280;13075;55.682;37.564;2022-11-15T11:15:11;99685.38;;;2.34;100.00
25084;BME280;13075;55.682;37.564;2022-11-15T11:18:06;99678.69;;;2.39;100.00
25084;BME280;13075;55.682;37.564;2022-11-15T11:21:17;99672.41;;;2.40;100.00
25084;BME280;13075;55.682;37.564;2022-11-15T11:23:47;99669.81;;;2.31;100.00
25084;BME280;13075;55.682;37.564;2022-11-15T11:26:38;99682.16;;;2.30;100.00
25084;BME280;13075;55.682;37.564;2022-11-15T11:29:43;99672.13;;;2.43;100.00
25084;BME280;13075;55.682;37.564;2022-11-15T11:32:49;99678.56;;;2.31;100.00
25084;BME280;13075;55.682;37.564;2022-11-15T11:40:54;99662.16;;;2.37;100.00
25084;BME280;13075;55.682;37.564;2022-11-15T11:44:00;99670.28;;;2.17;100.00
25084;BME280;13075;55.682;37.564;2022-11-15T11:49:24;99675.31;;;2.01;100.00
25084;BME280;13075;55.682;37.564;2022-11-15T11:57:25;99676.31;;;1.90;100.00
25084;BME280;13075;55.682;37.564;2022-11-15T11:59:58;99665.88;;;1.98;100.00
25084;BME280;13075;55.682;37.564;2022-11-15T12:02:31;99664.22;;;1.97;100.00
25084;BME280;13075;55.682;37.564;2022-11-15T12:05:35;99662.44;;;1.78;100.00
25084;BME280;13075;55.682;37.564;2022-11-15T12:10:45;99669.00;;;1.65;100.00
25084;BME280;13075;55.682;37.564;2022-11-15T12:13:19;99660.69;;;1.60;100.00
25084;BME280;13075;55.682;37.564;2022-11-15T12:15:56;99665.25;;;1.39;100.00
25084;BME280;13075;55.682;37.564;2022-11-15T12:18:22;99660.53;;;1.42;100.00
25084;BME280;13075;55.682;37.564;2022-11-15T12:20:58;99652.47;;;1.63;100.00
25084;BME280;13075;55.682;37.564;2022-11-15T12:23:29;99644.28;;;1.66;100.00
25084;BME280;13075;55.682;37.564;2022-11-15T12:26:06;99640.56;;;1.59;100.00
25084;BME280;13075;55.682;37.564;2022-11-15T12:33:46;99641.22;;;1.61;100.00
25084;BME280;13075;55.682;37.564;2022-11-15T12:41:15;99623.75;;;1.50;100.00
25084;BME280;13075;55.682;37.564;2022-11-15T12:43:42;99629.06;;;1.41;100.00
25084;BME280;13075;55.682;37.564;2022-11-15T12:51:04;99617.25;;;1.54;100.00
25084;BME280;13075;55.682;37.564;2022-11-15T12:53:32;99611.16;;;1.44;100.00
25084;BME280;13075;55.682;37.564;2022-11-15T12:56:28;99619.47;;;1.40;100.00
25084;BME280;13075;55.682;37.564;2022-11-15T12:58:58;99626.28;;;1.33;100.00
25084;BME280;13075;55.682;37.564;2022-11-15T13:06:59;99617.94;;;1.37;100.00
25084;BME280;13075;55.682;37.564;2022-11-15T13:11:55;99600.34;;;1.38;100.00
25084;BME280;13075;55.682;37.564;2022-11-15T13:14:41;99597.16;;;1.34;100.00
25084;BME280;13075;55.682;37.564;2022-11-15T13:17:32;99594.53;;;1.34;100.00
25084;BME280;13075;55.682;37.564;2022-11-15T13:26:05;99589.81;;;0.90;100.00
25084;BME280;13075;55.682;37.564;2022-11-15T13:30:36;99598.53;;;0.71;100.00
25084;BME280;13075;55.682;37.564;2022-11-15T13:33:28;99590.34;;;0.93;100.00
25084;BME280;13075;55.682;37.564;2022-11-15T13:35:58;99592.72;;;0.87;100.00
25084;BME280;13075;55.682;37.564;2022-11-15T13:40:50;99588.84;;;0.91;100.00
25084;BME280;13075;55.682;37.564;2022-11-15T13:49:11;99568.31;;;1.04;100.00
25084;BME280;13075;55.682;37.564;2022-11-15T13:51:42;99578.16;;;1.11;100.00
25084;BME280;13075;55.682;37.564;2022-11-15T13:54:28;99588.28;;;1.06;100.00
25084;BME280;13075;55.682;37.564;2022-11-15T13:57:22;99573.88;;;1.01;100.00
25084;BME280;13075;55.682;37.564;2022-11-15T13:59:49;99569.44;;;1.11;100.00
25084;BME280;13075;55.682;37.564;2022-11-15T14:02:25;99572.47;;;1.06;100.00
25084;BME280;13075;55.682;37.564;2022-11-15T14:04:53;99576.22;;;1.04;100.00
25084;BME280;13075;55.682;37.564;2022-11-15T14:07:23;99577.63;;;0.89;100.00
25084;BME280;13075;55.682;37.564;2022-11-15T14:09:49;99560.84;;;0.80;100.00
25084;BME280;13075;55.682;37.564;2022-11-15T14:12:32;99572.63;;;0.86;100.00
25084;BME280;13075;55.682;37.564;2022-11-15T14:15:00;99572.78;;;0.75;100.00
25084;BME280;13075;55.682;37.564;2022-11-15T14:17:42;99567.19;;;0.78;100.00
25084;BME280;13075;55.682;37.564;2022-11-15T14:20:39;99564.16;;;0.63;100.00
25084;BME280;13075;55.682;37.564;2022-11-15T14:23:24;99569.56;;;0.71;100.00
25084;BME280;13075;55.682;37.564;2022-11-15T14:25:58;99561.66;;;0.71;100.00
25084;BME280;13075;55.682;37.564;2022-11-15T14:30:51;99564.03;;;0.65;100.00
25084;BME280;13075;55.682;37.564;2022-11-15T14:33:29;99538.25;;;0.58;100.00
25084;BME280;13075;55.682;37.564;2022-11-15T14:35:56;99554.72;;;0.70;100.00
25084;BME280;13075;55.682;37.564;2022-11-15T14:38:26;99545.97;;;0.41;100.00
25084;BME280;13075;55.682;37.564;2022-11-15T14:40:53;99550.41;;;0.50;100.00
25084;BME280;13075;55.682;37.564;2022-11-15T14:43:20;99552.34;;;0.38;100.00
25084;BME280;13075;55.682;37.564;2022-11-15T14:45:45;99548.31;;;0.34;100.00
25084;BME280;13075;55.682;37.564;2022-11-15T14:48:11;99542.03;;;0.16;100.00
25084;BME280;13075;55.682;37.564;2022-11-15T14:50:37;99532.31;;;0.07;100.00
25084;BME280;13075;55.682;37.564;2022-11-15T14:53:03;99533.69;;;0.02;100.00
25084;BME280;13075;55.682;37.564;2022-11-15T14:55:32;99527.34;;;0.14;100.00
25084;BME280;13075;55.682;37.564;2022-11-15T14:58:01;99524.88;;;0.12;100.00
25084;BME280;13075;55.682;37.564;2022-11-15T15:00:30;99521.22;;;-0.06;100.00
25084;BME280;13075;55.682;37.564;2022-11-15T15:02:56;99530.13;;;0.12;100.00
25084;BME280;13075;55.682;37.564;2022-11-15T15:05:24;99523.63;;;0.16;100.00
25084;BME280;13075;55.682;37.564;2022-11-15T15:07:51;99530.41;;;0.19;100.00
25084;BME280;13075;55.682;37.564;2022-11-15T15:10:18;99527.09;;;0.17;100.00
25084;BME280;13075;55.682;37.564;2022-11-15T15:12:44;99517.31;;;0.38;100.00
25084;BME280;13075;55.682;37.564;2022-11-15T15:15:20;99522.84;;;0.35;100.00
25084;BME280;13075;55.682;37.564;2022-11-15T15:17:47;99513.84;;;0.28;100.00
25084;BME280;13075;55.682;37.564;2022-11-15T15:20:13;99519.53;;;0.52;100.00
25084;BME280;13075;55.682;37.564;2022-11-15T15:22:39;99505.81;;;0.58;100.00
25084;BME280;13075;55.682;37.564;2022-11-15T15:25:27;99505.56;;;0.51;100.00
25084;BME280;13075;55.682;37.564;2022-11-15T15:27:54;99511.25;;;0.56;100.00
25084;BME280;13075;55.682;37.564;2022-11-15T15:30:21;99501.94;;;0.52;100.00
25084;BME280;13075;55.682;37.564;2022-11-15T15:32:47;99505.69;;;0.50;100.00
25084;BME280;13075;55.682;37.564;2022-11-15T15:35:14;99499.66;;;0.10;100.00
25084;BME280;13075;55.682;37.564;2022-11-15T15:37:41;99496.88;;;0.02;100.00
25084;BME280;13075;55.682;37.564;2022-11-15T15:40:16;99500.63;;;0.18;100.00
25084;BME280;13075;55.682;37.564;2022-11-15T15:42:43;99489.72;;;0.23;100.00
25084;BME280;13075;55.682;37.564;2022-11-15T15:45:09;99492.47;;;0.21;100.00
25084;BME280;13075;55.682;37.564;2022-11-15T15:47:35;99483.59;;;0.03;100.00
25084;BME280;13075;55.682;37.564;2022-11-15T15:50:00;99481.28;;;0.19;100.00
25084;BME280;13075;55.682;37.564;2022-11-15T15:52:26;99474.91;;;0.31;100.00
25084;BME280;13075;55.682;37.564;2022-11-15T15:54:51;99465.50;;;0.29;100.00
25084;BME280;13075;55.682;37.564;2022-11-15T15:57:17;99469.91;;;-0.01;100.00